LOS ANGELES INTL

KLAX (LAX)
Los Angeles, California
Towered

Vatsim Metar:
KLAX 250953Z VRB04KT 10SM OVC015 17/14 A2986 RMK AO2 SLP110 T01720139 $

No ATC Online

Traffic

Inbound:
Ident
Type
Name
ETA
Phase
QTR8916
B77L/L
Imo Seon TTPP
12:09 Z
Cruse
UAL33
H/B789/L
Dylan Brathwaite TBPB
12:15 Z
Cruse
DLH450
H/B748/X
Rayane Marchand OMDB
13:39 Z
Cruse

Outbound:
Ident
Type
Name
Destination
Phase